Terminal Aerodrome Forecast
Issued by NWS

Home | Current Version | Previous Version | Text Only | Print | Product List | Glossary On
Versions: 1 2 3 4 5 6 7 8 9 10 11 12 13 14 15 16
000
FTUS46 KMFR 270521
TAFOTH
TAF
KOTH 270521Z 2706/2806 20004KT 6SM -DZ BR SCT005 OVC014
     FM271100 17004KT 6SM -DZ BR OVC008
     FM271500 16004KT P6SM SCT007 OVC015
     FM272100 23007KT P6SM BKN020 BKN150
     FM280200 16005KT P6SM OVC012=

USA.gov is the U.S. government's official web portal to all federal, state and local government web resources and services.